Time;durP1;ratioP1;P1;durP2;ratioP2;P2;SDS_P1;SDS_P2;PMS_P1;PMS_P2;Temp;Humidity;BMP_temperature;BMP_pressure;BME280_temperature;BME280_humidity;BME280_pressure;Samples;Min_cycle;Max_cycle;Signal;HPM_P1;HPM_P2
2023/07/16 00:00:32;;;;;;;;;;;19.60;66.00;;;;;;4104320;28;19985;-86
2023/07/16 00:02:33;;;;;;;;;;;19.50;65.50;;;;;;4102736;28;19922;-85
2023/07/16 00:04:33;;;;;;;;;;;19.50;65.50;;;;;;4086342;28;20373;-85
2023/07/16 00:06:34;;;;;;;;;;;19.40;65.60;;;;;;4104137;28;19922;-85
2023/07/16 00:08:55;;;;;;;;;;;19.40;66.00;;;;;;4106977;28;19972;-86
2023/07/16 00:11:15;;;;;;;;;;;19.40;65.50;;;;;;4118505;28;19922;-86
2023/07/16 00:13:36;;;;;;;;;;;19.40;65.20;;;;;;4106764;28;19914;-86
2023/07/16 00:15:56;;;;;;;;;;;19.30;65.30;;;;;;4103577;28;19969;-84
2023/07/16 00:18:17;;;;;;;;;;;19.40;65.50;;;;;;4104799;28;19922;-86
2023/07/16 00:20:38;;;;;;;;;;;19.30;66.10;;;;;;4105466;28;19926;-86
2023/07/16 00:22:58;;;;;;;;;;;19.20;66.30;;;;;;4105741;28;19961;-86
2023/07/16 00:25:19;;;;;;;;;;;19.30;66.00;;;;;;4107582;28;20004;-86
2023/07/16 00:27:39;;;;;;;;;;;19.20;66.10;;;;;;4111866;28;19992;-84
2023/07/16 00:30:00;;;;;;;;;;;19.10;66.70;;;;;;4102204;28;19941;-86
2023/07/16 00:32:20;;;;;;;;;;;19.10;65.70;;;;;;4108794;28;19968;-86
2023/07/16 00:34:41;;;;;;;;;;;19.10;65.50;;;;;;4105213;28;19922;-86
2023/07/16 00:37:03;;;;;;;;;;;19.10;65.10;;;;;;4095037;28;19945;-85
2023/07/16 00:39:23;;;;;;;;;;;19.10;67.60;;;;;;4101020;28;20008;-87
2023/07/16 00:41:44;;;;;;;;;;;19.00;66.60;;;;;;4105385;28;19970;-86
2023/07/16 00:43:44;;;;;;;;;;;19.00;66.40;;;;;;4090499;28;20376;-84
2023/07/16 00:45:46;;;;;;;;;;;19.00;66.00;;;;;;4103331;28;20033;-85
2023/07/16 00:47:46;;;;;;;;;;;18.90;66.60;;;;;;4108815;28;19983;-86
2023/07/16 00:49:47;;;;;;;;;;;18.90;65.70;;;;;;4089627;28;20701;-86
2023/07/16 00:51:48;;;;;;;;;;;18.90;65.70;;;;;;4105561;28;19978;-85
2023/07/16 00:53:48;;;;;;;;;;;18.80;65.70;;;;;;4108692;28;20395;-85
2023/07/16 00:55:49;;;;;;;;;;;18.80;65.80;;;;;;4105690;28;20410;-85
2023/07/16 00:57:50;;;;;;;;;;;18.80;65.50;;;;;;4103784;28;19918;-84
2023/07/16 00:59:51;;;;;;;;;;;18.80;65.20;;;;;;4105857;28;19926;-85
2023/07/16 01:01:51;;;;;;;;;;;18.80;66.00;;;;;;4120158;28;19918;-84
2023/07/16 01:03:52;;;;;;;;;;;18.70;65.80;;;;;;4108747;28;20497;-85
2023/07/16 01:05:53;;;;;;;;;;;18.70;65.80;;;;;;4107219;28;20004;-83
2023/07/16 01:07:59;;;;;;;;;;;18.70;66.40;;;;;;4105133;28;20551;-86
2023/07/16 01:10:02;;;;;;;;;;;18.60;67.50;;;;;;4106528;28;19922;-85
2023/07/16 01:12:04;;;;;;;;;;;18.60;67.30;;;;;;4108917;28;19914;-85
2023/07/16 01:14:05;;;;;;;;;;;18.60;66.80;;;;;;4106631;28;19977;-85
2023/07/16 01:16:06;;;;;;;;;;;18.60;66.30;;;;;;4106533;28;20049;-85
2023/07/16 01:18:06;;;;;;;;;;;18.60;66.00;;;;;;4111846;28;19922;-86
2023/07/16 01:20:08;;;;;;;;;;;18.50;65.90;;;;;;4106076;28;19922;-84
2023/07/16 01:22:25;;;;;;;;;;;18.50;67.00;;;;;;4107071;28;19925;-84
2023/07/16 01:24:40;;;;;;;;;;;18.50;66.80;;;;;;4108561;28;20401;-85
2023/07/16 01:26:55;;;;;;;;;;;18.40;67.30;;;;;;4092446;28;20104;-84
2023/07/16 01:29:14;;;;;;;;;;;18.40;66.20;;;;;;4104313;28;20308;-85
2023/07/16 01:31:15;;;;;;;;;;;18.40;66.10;;;;;;4109218;28;19933;-84
2023/07/16 01:33:16;;;;;;;;;;;18.40;67.60;;;;;;4107181;28;20017;-85
2023/07/16 01:35:17;;;;;;;;;;;18.30;66.70;;;;;;4124029;28;20455;-84
2023/07/16 01:37:18;;;;;;;;;;;18.30;67.30;;;;;;4104678;28;19957;-85
2023/07/16 01:39:18;;;;;;;;;;;18.30;67.20;;;;;;4109055;28;19946;-85
2023/07/16 01:41:19;;;;;;;;;;;18.30;66.60;;;;;;4109272;28;20304;-85
2023/07/16 01:43:20;;;;;;;;;;;18.30;67.30;;;;;;4109854;28;19918;-86
2023/07/16 01:45:20;;;;;;;;;;;18.20;67.30;;;;;;4108614;28;19921;-85
2023/07/16 01:47:29;;;;;;;;;;;18.20;67.30;;;;;;4132208;28;19922;-86
2023/07/16 01:49:30;;;;;;;;;;;18.20;66.70;;;;;;4124187;28;19981;-85
2023/07/16 01:51:31;;;;;;;;;;;18.10;67.20;;;;;;4123311;28;19933;-85
2023/07/16 01:53:31;;;;;;;;;;;18.20;67.30;;;;;;4109323;28;19981;-85
2023/07/16 01:55:32;;;;;;;;;;;18.10;66.80;;;;;;4110656;28;20314;-85
2023/07/16 01:57:33;;;;;;;;;;;18.10;66.70;;;;;;4129977;28;19928;-85
2023/07/16 01:59:33;;;;;;;;;;;18.00;66.80;;;;;;4106912;28;19980;-85
2023/07/16 02:01:34;;;;;;;;;;;18.10;66.80;;;;;;4122272;28;19949;-85
2023/07/16 02:03:34;;;;;;;;;;;18.00;66.40;;;;;;4105992;28;19922;-85
2023/07/16 02:05:35;;;;;;;;;;;18.00;67.70;;;;;;4111795;28;20016;-84
2023/07/16 02:07:35;;;;;;;;;;;18.00;67.50;;;;;;4108652;28;19921;-84
2023/07/16 02:09:40;;;;;;;;;;;17.90;68.20;;;;;;4109231;28;20439;-85
2023/07/16 02:11:41;;;;;;;;;;;18.00;68.20;;;;;;4124019;28;19925;-84
2023/07/16 02:13:42;;;;;;;;;;;17.90;67.70;;;;;;4088945;28;19923;-85
2023/07/16 02:15:43;;;;;;;;;;;17.90;67.80;;;;;;4107829;28;20352;-85
2023/07/16 02:18:04;;;;;;;;;;;17.90;68.70;;;;;;4110473;28;19914;-84
2023/07/16 02:20:06;;;;;;;;;;;17.80;67.90;;;;;;4108163;28;19922;-85
2023/07/16 02:22:26;;;;;;;;;;;17.80;67.50;;;;;;4103957;28;19922;-84
2023/07/16 02:24:47;;;;;;;;;;;17.80;67.60;;;;;;4108316;28;19929;-85
2023/07/16 02:27:07;;;;;;;;;;;17.70;67.70;;;;;;4115465;28;19917;-86
2023/07/16 02:29:28;;;;;;;;;;;17.80;67.80;;;;;;4129721;28;19969;-85
2023/07/16 02:31:48;;;;;;;;;;;17.70;68.50;;;;;;4145070;28;20001;-83
2023/07/16 02:34:08;;;;;;;;;;;17.60;68.30;;;;;;4132901;28;19922;-84
2023/07/16 02:36:29;;;;;;;;;;;17.60;68.00;;;;;;4117066;28;19914;-86
2023/07/16 02:38:49;;;;;;;;;;;17.60;68.00;;;;;;4108555;28;19918;-83
2023/07/16 02:41:10;;;;;;;;;;;17.50;68.70;;;;;;4119481;28;19917;-85
2023/07/16 02:43:30;;;;;;;;;;;17.50;68.70;;;;;;4123796;28;19924;-84
2023/07/16 02:45:49;;;;;;;;;;;17.50;68.30;;;;;;4111900;28;20396;-85
2023/07/16 02:48:09;;;;;;;;;;;17.50;68.30;;;;;;4117525;28;19918;-85
2023/07/16 02:50:30;;;;;;;;;;;17.50;68.20;;;;;;4110270;28;19925;-84
2023/07/16 02:52:51;;;;;;;;;;;17.40;68.20;;;;;;4109725;28;19969;-85
2023/07/16 02:55:11;;;;;;;;;;;17.40;69.70;;;;;;4112984;28;19968;-84
2023/07/16 02:57:32;;;;;;;;;;;17.50;68.40;;;;;;4119488;28;19922;-85
2023/07/16 02:59:52;;;;;;;;;;;17.40;68.10;;;;;;4108887;28;19917;-85
2023/07/16 03:02:13;;;;;;;;;;;17.30;67.60;;;;;;4109987;28;19914;-86
2023/07/16 03:04:33;;;;;;;;;;;17.30;67.60;;;;;;4110416;28;19918;-85
2023/07/16 03:06:54;;;;;;;;;;;17.40;67.40;;;;;;4106484;28;20497;-85
2023/07/16 03:09:14;;;;;;;;;;;17.30;67.50;;;;;;4107351;28;19984;-86
2023/07/16 03:11:24;;;;;;;;;;;17.20;67.30;;;;;;4125215;28;20381;-85
2023/07/16 03:13:25;;;;;;;;;;;17.20;68.20;;;;;;4101696;28;19956;-84
2023/07/16 03:15:25;;;;;;;;;;;17.20;67.90;;;;;;4104318;28;19957;-86
2023/07/16 03:17:26;;;;;;;;;;;17.20;67.50;;;;;;4106832;28;19922;-85
2023/07/16 03:19:26;;;;;;;;;;;17.10;67.50;;;;;;4125302;28;19957;-84
2023/07/16 03:21:27;;;;;;;;;;;17.10;67.30;;;;;;4110562;28;20084;-85
2023/07/16 03:23:28;;;;;;;;;;;17.10;67.30;;;;;;4087874;28;19918;-84
2023/07/16 03:25:30;;;;;;;;;;;17.10;67.40;;;;;;4102148;28;19918;-84
2023/07/16 03:27:31;;;;;;;;;;;17.10;67.70;;;;;;4111545;28;19945;-84
2023/07/16 03:29:35;;;;;;;;;;;17.10;67.50;;;;;;4108724;28;19926;-85
2023/07/16 03:31:36;;;;;;;;;;;17.00;67.10;;;;;;4107595;28;19918;-85
2023/07/16 03:33:37;;;;;;;;;;;17.00;67.20;;;;;;4106150;28;20384;-84
2023/07/16 03:35:37;;;;;;;;;;;17.00;67.20;;;;;;4110698;28;19925;-85
2023/07/16 03:37:39;;;;;;;;;;;17.00;68.10;;;;;;4105824;28;19925;-85
2023/07/16 03:39:42;;;;;;;;;;;17.00;68.10;;;;;;4107426;28;19918;-85
2023/07/16 03:41:43;;;;;;;;;;;16.90;68.00;;;;;;4110477;28;19948;-84
2023/07/16 03:43:46;;;;;;;;;;;16.90;67.90;;;;;;4105739;28;20312;-85
2023/07/16 03:45:49;;;;;;;;;;;16.90;67.90;;;;;;4122713;28;19960;-85
2023/07/16 03:48:09;;;;;;;;;;;16.90;68.10;;;;;;4111775;28;19925;-85
2023/07/16 03:50:10;;;;;;;;;;;16.80;67.70;;;;;;4110829;28;21732;-85
2023/07/16 03:52:30;;;;;;;;;;;16.80;67.70;;;;;;4110981;28;19930;-85
2023/07/16 03:54:31;;;;;;;;;;;16.80;67.70;;;;;;4106468;28;20093;-85
2023/07/16 03:56:55;;;;;;;;;;;16.90;69.20;;;;;;4126580;28;19918;-84
2023/07/16 03:59:18;;;;;;;;;;;16.80;69.00;;;;;;4131048;28;20009;-84
2023/07/16 04:01:39;;;;;;;;;;;16.80;69.00;;;;;;4130118;28;19961;-85
2023/07/16 04:03:59;;;;;;;;;;;16.70;69.90;;;;;;4135536;28;19981;-85
2023/07/16 04:06:20;;;;;;;;;;;16.70;69.30;;;;;;4136408;28;19906;-84
2023/07/16 04:08:41;;;;;;;;;;;16.70;69.80;;;;;;4128441;28;19922;-86
2023/07/16 04:11:02;;;;;;;;;;;16.70;69.20;;;;;;4128847;28;19922;-85
2023/07/16 04:13:23;;;;;;;;;;;16.70;69.70;;;;;;4117239;28;19922;-86
2023/07/16 04:15:47;;;;;;;;;;;16.70;70.10;;;;;;4105899;28;20057;-86
2023/07/16 04:18:07;;;;;;;;;;;16.60;70.40;;;;;;4107708;28;19925;-86
2023/07/16 04:20:28;;;;;;;;;;;16.60;70.50;;;;;;4109802;28;19925;-86
2023/07/16 04:22:52;;;;;;;;;;;16.60;70.00;;;;;;4110682;28;19918;-85
2023/07/16 04:24:52;;;;;;;;;;;16.60;70.40;;;;;;4115521;28;19918;-87
2023/07/16 04:26:53;;;;;;;;;;;16.50;70.00;;;;;;4119881;28;19926;-85
2023/07/16 04:28:54;;;;;;;;;;;16.50;69.90;;;;;;4114590;28;19973;-85
2023/07/16 04:30:54;;;;;;;;;;;16.50;70.10;;;;;;4112917;28;20893;-86
2023/07/16 04:32:55;;;;;;;;;;;16.60;70.20;;;;;;4113412;28;20008;-86
2023/07/16 04:34:56;;;;;;;;;;;16.50;70.40;;;;;;4116229;28;19922;-85
2023/07/16 04:36:57;;;;;;;;;;;16.50;70.50;;;;;;4131490;28;19973;-87
2023/07/16 04:38:57;;;;;;;;;;;16.50;70.80;;;;;;4095088;28;19918;-86
2023/07/16 04:40:58;;;;;;;;;;;16.50;70.60;;;;;;4128804;28;19917;-86
2023/07/16 04:42:59;;;;;;;;;;;16.60;70.50;;;;;;4114667;28;20268;-85
2023/07/16 04:45:00;;;;;;;;;;;16.60;71.10;;;;;;4122492;28;19954;-86
2023/07/16 04:47:01;;;;;;;;;;;16.60;71.50;;;;;;4117546;28;19907;-87
2023/07/16 04:49:03;;;;;;;;;;;16.70;71.60;;;;;;4114677;28;19971;-85
2023/07/16 04:51:05;;;;;;;;;;;16.70;71.50;;;;;;4113314;28;19930;-85
2023/07/16 04:53:06;;;;;;;;;;;16.70;71.70;;;;;;4124847;28;20441;-87
2023/07/16 04:55:08;;;;;;;;;;;16.80;71.60;;;;;;4124991;28;20021;-87
2023/07/16 04:57:08;;;;;;;;;;;16.80;71.70;;;;;;4110845;28;19945;-86
2023/07/16 04:59:12;;;;;;;;;;;16.80;71.40;;;;;;4128253;28;19960;-87
2023/07/16 05:01:12;;;;;;;;;;;16.90;71.60;;;;;;4093103;28;19919;-86
2023/07/16 05:03:16;;;;;;;;;;;16.90;71.40;;;;;;4109568;28;19930;-88
2023/07/16 05:05:16;;;;;;;;;;;17.00;71.30;;;;;;4110286;28;19945;-88
2023/07/16 05:07:17;;;;;;;;;;;17.00;71.30;;;;;;4112904;28;19922;-86
2023/07/16 05:09:19;;;;;;;;;;;17.10;71.30;;;;;;4111649;28;20334;-87
2023/07/16 05:11:23;;;;;;;;;;;17.20;71.20;;;;;;4107547;28;20017;-87
2023/07/16 05:13:23;;;;;;;;;;;17.20;70.80;;;;;;4113947;28;20415;-86
2023/07/16 05:15:25;;;;;;;;;;;17.30;70.90;;;;;;4126910;28;19972;-88
2023/07/16 05:17:26;;;;;;;;;;;17.30;70.80;;;;;;4112578;28;19914;-87
2023/07/16 05:19:28;;;;;;;;;;;17.40;70.70;;;;;;4116327;28;20015;-87
2023/07/16 05:21:29;;;;;;;;;;;17.40;70.70;;;;;;4108323;28;20550;-87
2023/07/16 05:23:31;;;;;;;;;;;17.50;70.50;;;;;;4108571;28;19919;-87
2023/07/16 05:25:48;;;;;;;;;;;17.60;70.30;;;;;;4110922;28;19918;-87
2023/07/16 05:28:09;;;;;;;;;;;17.60;70.00;;;;;;4109223;28;20005;-88
2023/07/16 05:30:29;;;;;;;;;;;17.70;69.80;;;;;;4122730;28;20016;-85
2023/07/16 05:32:50;;;;;;;;;;;17.80;69.60;;;;;;4108396;28;19957;-86
2023/07/16 05:35:11;;;;;;;;;;;17.90;69.70;;;;;;4110093;28;19954;-87
2023/07/16 05:37:31;;;;;;;;;;;17.90;69.50;;;;;;4125686;28;19994;-87
2023/07/16 05:39:52;;;;;;;;;;;17.90;69.10;;;;;;4108307;28;19924;-86
2023/07/16 05:42:12;;;;;;;;;;;18.10;69.00;;;;;;4110674;28;19922;-88
2023/07/16 05:44:33;;;;;;;;;;;18.10;68.80;;;;;;4112350;28;19918;-87
2023/07/16 05:46:54;;;;;;;;;;;18.20;68.60;;;;;;4121319;28;19918;-87
2023/07/16 05:49:14;;;;;;;;;;;18.20;68.20;;;;;;4102354;28;19929;-88
2023/07/16 05:51:35;;;;;;;;;;;18.30;68.20;;;;;;4104034;28;19918;-88
2023/07/16 05:53:35;;;;;;;;;;;18.30;68.00;;;;;;4109518;28;19920;-87
2023/07/16 05:55:36;;;;;;;;;;;18.40;67.60;;;;;;4109135;28;19958;-89
2023/07/16 05:57:36;;;;;;;;;;;18.40;67.50;;;;;;4106049;28;19973;-87
2023/07/16 05:59:37;;;;;;;;;;;18.50;67.30;;;;;;4110080;28;20008;-90
2023/07/16 06:01:38;;;;;;;;;;;18.50;66.70;;;;;;4120818;28;19920;-86
2023/07/16 06:03:39;;;;;;;;;;;18.60;66.80;;;;;;4094535;28;19919;-87
2023/07/16 06:05:39;;;;;;;;;;;18.70;66.70;;;;;;4110683;28;19918;-90
2023/07/16 06:07:40;;;;;;;;;;;18.60;67.30;;;;;;4099043;28;19917;-86
2023/07/16 06:09:41;;;;;;;;;;;18.70;66.40;;;;;;4110709;28;20001;-87
2023/07/16 06:11:42;;;;;;;;;;;18.70;66.10;;;;;;4094024;28;19950;-87
2023/07/16 06:13:46;;;;;;;;;;;18.80;65.90;;;;;;4109878;28;19928;-87
2023/07/16 06:15:47;;;;;;;;;;;18.80;65.70;;;;;;4107523;28;19922;-88
2023/07/16 06:17:48;;;;;;;;;;;18.90;65.60;;;;;;4092925;28;19923;-87
2023/07/16 06:19:50;;;;;;;;;;;18.90;65.00;;;;;;4106127;28;19926;-89
2023/07/16 06:21:51;;;;;;;;;;;18.90;64.90;;;;;;4104377;28;19938;-88
2023/07/16 06:23:55;;;;;;;;;;;18.90;64.40;;;;;;4123414;28;19918;-87
2023/07/16 06:26:15;;;;;;;;;;;19.00;64.70;;;;;;4110193;28;20227;-88
2023/07/16 06:28:36;;;;;;;;;;;19.10;64.80;;;;;;4109991;28;19917;-86
2023/07/16 06:30:49;;;;;;;;;;;19.10;64.20;;;;;;4122600;28;19921;-87
2023/07/16 06:33:10;;;;;;;;;;;19.20;64.00;;;;;;4123255;28;19922;-85
2023/07/16 06:35:31;;;;;;;;;;;19.20;63.50;;;;;;4121654;28;19956;-87
2023/07/16 06:37:51;;;;;;;;;;;19.30;63.40;;;;;;4107741;28;20423;-87
2023/07/16 06:40:12;;;;;;;;;;;19.30;63.50;;;;;;4113006;28;19965;-88
2023/07/16 06:42:33;;;;;;;;;;;19.40;63.00;;;;;;4104362;28;21424;-86
2023/07/16 06:44:54;;;;;;;;;;;19.40;62.80;;;;;;4122363;28;20525;-88
2023/07/16 06:47:15;;;;;;;;;;;19.50;63.10;;;;;;4105622;28;20431;-89
2023/07/16 06:49:42;;;;;;;;;;;19.60;62.40;;;;;;4105963;28;20753;-89
2023/07/16 06:51:48;;;;;;;;;;;19.60;60.50;;;;;;4107539;28;20370;-90
2023/07/16 06:54:09;;;;;;;;;;;19.70;60.50;;;;;;4120622;28;20036;-88
2023/07/16 06:56:29;;;;;;;;;;;19.80;59.40;;;;;;4106509;28;19961;-86
2023/07/16 06:58:50;;;;;;;;;;;19.80;59.50;;;;;;4112403;28;19922;-84
2023/07/16 07:00:56;;;;;;;;;;;19.80;59.30;;;;;;4107813;28;20303;-89
2023/07/16 07:03:16;;;;;;;;;;;19.80;58.80;;;;;;4110567;28;19928;-90
2023/07/16 07:05:41;;;;;;;;;;;19.90;58.50;;;;;;4106955;28;20400;-88
2023/07/16 07:08:04;;;;;;;;;;;19.90;59.40;;;;;;4107605;28;20448;-85
2023/07/16 07:10:25;;;;;;;;;;;19.90;59.50;;;;;;4121933;28;20412;-87
2023/07/16 07:12:45;;;;;;;;;;;20.00;58.90;;;;;;4109409;28;20008;-90
2023/07/16 07:15:07;;;;;;;;;;;20.00;59.00;;;;;;4110931;28;20494;-89
2023/07/16 07:17:27;;;;;;;;;;;20.00;58.00;;;;;;4109646;28;19922;-90
2023/07/16 07:19:57;;;;;;;;;;;20.10;58.00;;;;;;4106913;28;19918;-90
2023/07/16 07:22:17;;;;;;;;;;;20.10;58.10;;;;;;4107396;28;20534;-87
2023/07/16 07:24:38;;;;;;;;;;;20.10;58.20;;;;;;4120211;28;19917;-88
2023/07/16 07:26:59;;;;;;;;;;;20.10;58.10;;;;;;4108286;28;20434;-88
2023/07/16 07:29:19;;;;;;;;;;;20.10;58.30;;;;;;4108679;28;20483;-88
2023/07/16 07:31:20;;;;;;;;;;;20.20;58.50;;;;;;4106147;28;19918;-88
2023/07/16 07:33:21;;;;;;;;;;;20.20;57.60;;;;;;4106881;28;20008;-88
2023/07/16 07:35:22;;;;;;;;;;;20.20;57.50;;;;;;4108799;28;20009;-89
2023/07/16 07:37:43;;;;;;;;;;;20.30;57.80;;;;;;4106869;28;20322;-87
2023/07/16 07:40:04;;;;;;;;;;;20.30;57.00;;;;;;4119202;28;20148;-87
2023/07/16 07:42:16;;;;;;;;;;;20.30;57.10;;;;;;4109255;28;19925;-86
2023/07/16 07:44:36;;;;;;;;;;;20.40;56.60;;;;;;4130943;28;19910;-89
2023/07/16 07:46:57;;;;;;;;;;;20.50;57.00;;;;;;4124214;28;20299;-89
2023/07/16 07:49:21;;;;;;;;;;;20.50;56.20;;;;;;4118689;28;20400;-92
2023/07/16 07:51:41;;;;;;;;;;;20.40;57.20;;;;;;4107534;28;19922;-90
2023/07/16 07:54:02;;;;;;;;;;;20.60;57.30;;;;;;4109974;28;19922;-88
2023/07/16 07:56:22;;;;;;;;;;;20.60;57.10;;;;;;4109072;28;19989;-85
2023/07/16 07:58:43;;;;;;;;;;;20.70;57.10;;;;;;4119904;28;20411;-87
2023/07/16 08:01:05;;;;;;;;;;;20.70;56.00;;;;;;4104729;28;20362;-88
2023/07/16 08:03:06;;;;;;;;;;;20.80;55.70;;;;;;4126705;28;19925;-87
2023/07/16 08:05:07;;;;;;;;;;;20.80;55.80;;;;;;4126399;28;20320;-89
2023/07/16 08:07:07;;;;;;;;;;;20.90;56.20;;;;;;4128194;28;19907;-91
2023/07/16 08:09:28;;;;;;;;;;;20.90;56.40;;;;;;4113161;28;20884;-87
2023/07/16 08:11:29;;;;;;;;;;;21.00;56.10;;;;;;4114477;28;19918;-84
2023/07/16 08:13:30;;;;;;;;;;;21.00;55.40;;;;;;4109174;28;19957;-89
2023/07/16 08:15:31;;;;;;;;;;;21.10;55.80;;;;;;4129515;28;19983;-88
2023/07/16 08:17:32;;;;;;;;;;;21.20;55.80;;;;;;4125675;28;19914;-87
2023/07/16 08:19:33;;;;;;;;;;;21.20;54.80;;;;;;4095508;28;19915;-87
2023/07/16 08:21:35;;;;;;;;;;;21.20;55.20;;;;;;4122211;28;20044;-88
2023/07/16 08:23:56;;;;;;;;;;;21.30;55.40;;;;;;4108382;28;20323;-89
2023/07/16 08:26:17;;;;;;;;;;;21.30;55.00;;;;;;4105722;28;20719;-88
2023/07/16 08:28:37;;;;;;;;;;;21.40;55.40;;;;;;4115191;28;20563;-85
2023/07/16 08:30:58;;;;;;;;;;;21.50;55.20;;;;;;4107328;28;20352;-90
2023/07/16 08:33:18;;;;;;;;;;;21.60;54.70;;;;;;4108551;28;20640;-90
2023/07/16 08:35:39;;;;;;;;;;;21.60;54.20;;;;;;4111271;28;20301;-88
2023/07/16 08:38:00;;;;;;;;;;;21.70;53.10;;;;;;4119333;28;19917;-87
2023/07/16 08:40:00;;;;;;;;;;;21.70;52.30;;;;;;4125143;28;19925;-88
2023/07/16 08:42:01;;;;;;;;;;;21.70;52.80;;;;;;4107772;28;19914;-89
2023/07/16 08:44:03;;;;;;;;;;;21.70;53.40;;;;;;4109207;28;19972;-88
2023/07/16 08:46:06;;;;;;;;;;;21.60;52.20;;;;;;4103893;28;20008;-89
2023/07/16 08:48:11;;;;;;;;;;;21.60;51.80;;;;;;4122193;28;20020;-86
2023/07/16 08:50:12;;;;;;;;;;;21.60;51.90;;;;;;4104429;28;19926;-88
2023/07/16 08:52:17;;;;;;;;;;;21.50;52.10;;;;;;4107926;28;19980;-90
2023/07/16 08:54:37;;;;;;;;;;;21.40;52.50;;;;;;4106652;28;19949;-88
2023/07/16 08:56:59;;;;;;;;;;;21.40;53.30;;;;;;4103993;28;20438;-87
2023/07/16 08:59:20;;;;;;;;;;;21.30;53.60;;;;;;4119692;28;20575;-89
2023/07/16 09:01:43;;;;;;;;;;;21.30;53.50;;;;;;4103987;28;20316;-86
2023/07/16 09:04:04;;;;;;;;;;;21.30;53.50;;;;;;4103367;28;20339;-88
2023/07/16 09:06:45;;;;;;;;;;;21.30;53.40;;;;;;4106720;28;20398;-89
2023/07/16 09:09:05;;;;;;;;;;;21.30;52.80;;;;;;4108040;28;20323;-88
2023/07/16 09:11:29;;;;;;;;;;;21.40;53.00;;;;;;4109271;28;20292;-89
2023/07/16 09:13:50;;;;;;;;;;;21.40;52.80;;;;;;4109908;28;20573;-88
2023/07/16 09:16:10;;;;;;;;;;;21.40;52.40;;;;;;4107682;28;20094;-86
2023/07/16 09:18:11;;;;;;;;;;;21.30;52.90;;;;;;4121044;28;20012;-88
2023/07/16 09:20:18;;;;;;;;;;;21.30;52.80;;;;;;4096310;28;20703;-89
2023/07/16 09:22:19;;;;;;;;;;;21.30;52.90;;;;;;4125643;28;19957;-87
2023/07/16 09:24:20;;;;;;;;;;;21.30;53.20;;;;;;4109027;28;19918;-89
2023/07/16 09:26:21;;;;;;;;;;;21.30;53.40;;;;;;4127128;28;20510;-88
2023/07/16 09:28:21;;;;;;;;;;;21.20;53.80;;;;;;4092821;28;20435;-89
2023/07/16 09:30:42;;;;;;;;;;;21.20;54.10;;;;;;4108214;28;20044;-88
2023/07/16 09:33:10;;;;;;;;;;;21.20;54.20;;;;;;4120182;28;19960;-88
2023/07/16 09:35:35;;;;;;;;;;;21.10;53.80;;;;;;4109837;28;20020;-86
2023/07/16 09:37:56;;;;;;;;;;;21.10;53.70;;;;;;4111909;28;20000;-87
2023/07/16 09:39:56;;;;;;;;;;;21.10;53.90;;;;;;4109359;28;19929;-88
2023/07/16 09:41:57;;;;;;;;;;;21.00;54.20;;;;;;4110465;28;19929;-88
2023/07/16 09:43:58;;;;;;;;;;;21.00;54.50;;;;;;4113961;28;19914;-88
2023/07/16 09:45:58;;;;;;;;;;;21.00;54.30;;;;;;4108897;28;19925;-88
2023/07/16 09:48:00;;;;;;;;;;;21.00;55.20;;;;;;4108930;28;19918;-84
2023/07/16 09:50:01;;;;;;;;;;;21.10;55.00;;;;;;4102108;28;19961;-88
2023/07/16 09:52:03;;;;;;;;;;;21.20;55.00;;;;;;4126008;28;19925;-87
2023/07/16 09:54:25;;;;;;;;;;;21.20;54.80;;;;;;4108328;28;19918;-87
2023/07/16 09:56:29;;;;;;;;;;;21.30;54.80;;;;;;4090397;28;20547;-89
2023/07/16 10:02:17;;;;;;;;;;;21.50;54.20;;;;;;4294458;22;19930;-89
2023/07/16 10:04:39;;;;;;;;;;;21.50;54.50;;;;;;4122996;28;19940;-86
2023/07/16 10:10:07;;;;;;;;;;;21.70;54.00;;;;;;4109400;28;19930;-87
2023/07/16 10:13:07;;;;;;;;;;;21.70;54.30;;;;;;4461983;22;20014;-90
2023/07/16 10:15:39;;;;;;;;;;;21.70;54.80;;;;;;4129938;28;20041;-86
2023/07/16 10:18:00;;;;;;;;;;;21.70;54.80;;;;;;4137646;28;19940;-88
2023/07/16 10:20:34;;;;;;;;;;;21.60;53.50;;;;;;4122488;28;20196;-85
2023/07/16 10:22:55;;;;;;;;;;;21.60;53.60;;;;;;4108428;28;19946;-90
2023/07/16 10:25:30;;;;;;;;;;;21.60;52.30;;;;;;4101653;28;19922;-88
2023/07/16 10:27:32;;;;;;;;;;;21.70;52.60;;;;;;4105016;28;19922;-89
2023/07/16 10:29:47;;;;;;;;;;;21.70;53.00;;;;;;4106996;28;19965;-89
2023/07/16 10:31:48;;;;;;;;;;;21.70;53.30;;;;;;4104806;28;19918;-86
2023/07/16 10:34:04;;;;;;;;;;;21.70;52.90;;;;;;4106837;28;20774;-89
2023/07/16 10:36:05;;;;;;;;;;;21.70;53.00;;;;;;4110835;28;20442;-85
2023/07/16 10:38:25;;;;;;;;;;;21.70;52.60;;;;;;4105635;28;20005;-89
2023/07/16 10:40:46;;;;;;;;;;;21.70;52.70;;;;;;4107856;28;19984;-87
2023/07/16 10:43:07;;;;;;;;;;;21.80;53.00;;;;;;4103773;28;19933;-88
2023/07/16 10:45:30;;;;;;;;;;;21.90;52.20;;;;;;4105014;28;20568;-89
2023/07/16 10:47:52;;;;;;;;;;;21.90;51.50;;;;;;4108048;28;19960;-87
2023/07/16 10:50:13;;;;;;;;;;;21.90;51.10;;;;;;4102419;28;19922;-86
2023/07/16 10:52:34;;;;;;;;;;;21.90;51.90;;;;;;4114248;28;19961;-87
2023/07/16 10:54:58;;;;;;;;;;;22.00;51.70;;;;;;4100830;28;19964;-87
2023/07/16 10:57:19;;;;;;;;;;;22.00;51.40;;;;;;4101443;28;20008;-89
2023/07/16 10:59:45;;;;;;;;;;;22.10;51.70;;;;;;4111274;28;19921;-88
2023/07/16 11:01:46;;;;;;;;;;;22.10;51.50;;;;;;4121069;28;19918;-90
2023/07/16 11:03:50;;;;;;;;;;;22.10;51.40;;;;;;4127726;28;19936;-90
2023/07/16 11:05:53;;;;;;;;;;;22.20;51.30;;;;;;4088763;28;19918;-84
2023/07/16 11:08:09;;;;;;;;;;;22.20;51.00;;;;;;4108464;28;19969;-87
2023/07/16 11:10:10;;;;;;;;;;;22.20;50.80;;;;;;4106130;28;19930;-87
2023/07/16 11:12:11;;;;;;;;;;;22.20;51.00;;;;;;4106726;28;20371;-86
2023/07/16 11:14:12;;;;;;;;;;;22.30;51.10;;;;;;4108613;28;19953;-87
2023/07/16 11:16:15;;;;;;;;;;;22.20;50.20;;;;;;4106690;28;19965;-84
2023/07/16 11:18:15;;;;;;;;;;;22.30;50.60;;;;;;4122611;28;19918;-85
2023/07/16 11:20:19;;;;;;;;;;;22.20;51.30;;;;;;4109058;28;19914;-86
2023/07/16 11:22:25;;;;;;;;;;;22.20;51.60;;;;;;4106492;28;19925;-86
2023/07/16 11:24:39;;;;;;;;;;;22.10;52.10;;;;;;4104773;28;19921;-89
2023/07/16 11:27:00;;;;;;;;;;;22.00;52.80;;;;;;4106867;28;19925;-88
2023/07/16 11:29:21;;;;;;;;;;;21.90;52.50;;;;;;4118355;28;19996;-89
2023/07/16 11:31:42;;;;;;;;;;;21.80;53.10;;;;;;4115521;28;19918;-87
2023/07/16 11:34:24;;;;;;;;;;;21.70;52.80;;;;;;4103780;28;19937;-89
2023/07/16 11:36:44;;;;;;;;;;;21.60;53.20;;;;;;4120792;28;19915;-89
2023/07/16 11:39:05;;;;;;;;;;;21.50;53.90;;;;;;4120150;28;19918;-90
2023/07/16 11:41:31;;;;;;;;;;;21.40;54.30;;;;;;4120903;28;19922;-88
2023/07/16 11:43:52;;;;;;;;;;;21.40;54.50;;;;;;4119511;28;19939;-87
2023/07/16 11:49:13;;;;;;;;;;;21.30;54.40;;;;;;4075221;29;20026;-84
2023/07/16 11:51:16;;;;;;;;;;;21.30;55.40;;;;;;4093586;28;20083;-89
2023/07/16 11:53:20;;;;;;;;;;;21.30;55.20;;;;;;4081446;28;20087;-88
2023/07/16 11:55:40;;;;;;;;;;;21.30;55.10;;;;;;4089995;28;19973;-89
2023/07/16 11:57:41;;;;;;;;;;;21.30;55.40;;;;;;4073359;29;19926;-89
2023/07/16 11:59:43;;;;;;;;;;;21.40;55.50;;;;;;4075983;29;20463;-86
2023/07/16 12:02:03;;;;;;;;;;;21.40;55.50;;;;;;4086198;28;19914;-89
2023/07/16 12:04:58;;;;;;;;;;;21.50;55.60;;;;;;4086989;28;19918;-87
2023/07/16 12:07:32;;;;;;;;;;;21.50;55.20;;;;;;4089962;28;20611;-86
2023/07/16 12:09:53;;;;;;;;;;;21.70;54.70;;;;;;4090804;28;19975;-85
2023/07/16 12:12:14;;;;;;;;;;;21.80;54.30;;;;;;4089628;28;19923;-86
2023/07/16 12:14:40;;;;;;;;;;;21.90;53.80;;;;;;4069603;28;19981;-88
2023/07/16 12:16:41;;;;;;;;;;;22.00;51.90;;;;;;4076887;29;19915;-88
2023/07/16 12:18:41;;;;;;;;;;;22.10;52.10;;;;;;4085245;28;19925;-85
2023/07/16 12:20:42;;;;;;;;;;;22.20;52.20;;;;;;4092411;28;20765;-88
2023/07/16 12:22:45;;;;;;;;;;;22.20;52.00;;;;;;4090228;28;20387;-88
2023/07/16 12:24:46;;;;;;;;;;;22.30;52.00;;;;;;4089541;28;20327;-87
2023/07/16 12:26:47;;;;;;;;;;;22.40;52.20;;;;;;4121469;28;20016;-88
2023/07/16 12:33:43;;;;;;;;;;;22.50;52.30;;;;;;4247033;22;20402;-89
2023/07/16 12:35:44;;;;;;;;;;;22.60;52.70;;;;;;4104356;28;19966;-89
2023/07/16 12:38:06;;;;;;;;;;;22.70;52.10;;;;;;4139586;28;19979;-89
2023/07/16 12:40:08;;;;;;;;;;;22.70;51.70;;;;;;4123814;28;19918;-87
2023/07/16 12:42:31;;;;;;;;;;;22.80;51.60;;;;;;4128006;28;19921;-91
2023/07/16 12:44:52;;;;;;;;;;;22.80;51.20;;;;;;4142746;28;19921;-88
2023/07/16 12:47:13;;;;;;;;;;;22.90;50.20;;;;;;4122721;28;19918;-90
2023/07/16 12:50:05;;;;;;;;;;;22.90;49.20;;;;;;4140712;28;20153;-86
2023/07/16 12:57:46;;;;;;;;;;;22.90;49.00;;;;;;4142111;28;20207;-88
2023/07/16 13:00:09;;;;;;;;;;;22.80;48.30;;;;;;4143782;28;19952;-88
2023/07/16 13:02:13;;;;;;;;;;;22.70;48.10;;;;;;4212715;22;19930;-89
2023/07/16 13:04:14;;;;;;;;;;;22.80;48.20;;;;;;4126429;28;19917;-88